sensor_id;sensor_type;location;lat;lon;timestamp;P1;durP1;ratioP1;P2;durP2;ratioP2
66380;SDS011;53177;52.648;1.214;2023-04-25T00:02:04;13.15;;;1.60;;
66380;SDS011;53177;52.648;1.214;2023-04-25T00:04:30;9.17;;;1.60;;
66380;SDS011;53177;52.648;1.214;2023-04-25T00:06:58;8.23;;;1.70;;
66380;SDS011;53177;52.648;1.214;2023-04-25T00:09:26;8.55;;;1.88;;
66380;SDS011;53177;52.648;1.214;2023-04-25T00:11:52;9.77;;;1.50;;
66380;SDS011;53177;52.648;1.214;2023-04-25T00:14:17;11.67;;;1.87;;
66380;SDS011;53177;52.648;1.214;2023-04-25T00:16:43;9.37;;;1.63;;
66380;SDS011;53177;52.648;1.214;2023-04-25T00:19:09;7.40;;;1.40;;
66380;SDS011;53177;52.648;1.214;2023-04-25T00:21:34;7.93;;;1.40;;
66380;SDS011;53177;52.648;1.214;2023-04-25T00:24:00;10.05;;;1.77;;
66380;SDS011;53177;52.648;1.214;2023-04-25T00:26:26;8.60;;;1.90;;
66380;SDS011;53177;52.648;1.214;2023-04-25T00:28:52;10.88;;;1.60;;
66380;SDS011;53177;52.648;1.214;2023-04-25T00:31:17;8.00;;;1.97;;
66380;SDS011;53177;52.648;1.214;2023-04-25T00:33:43;8.17;;;2.50;;
66380;SDS011;53177;52.648;1.214;2023-04-25T00:36:08;10.47;;;1.60;;
66380;SDS011;53177;52.648;1.214;2023-04-25T00:38:34;11.57;;;2.08;;
66380;SDS011;53177;52.648;1.214;2023-04-25T00:41:00;10.13;;;1.87;;
66380;SDS011;53177;52.648;1.214;2023-04-25T00:43:28;9.45;;;1.60;;
66380;SDS011;53177;52.648;1.214;2023-04-25T00:45:57;6.63;;;1.50;;
66380;SDS011;53177;52.648;1.214;2023-04-25T00:48:25;7.50;;;1.40;;
66380;SDS011;53177;52.648;1.214;2023-04-25T00:50:52;8.55;;;1.58;;
66380;SDS011;53177;52.648;1.214;2023-04-25T00:53:19;7.82;;;1.42;;
66380;SDS011;53177;52.648;1.214;2023-04-25T00:55:46;8.40;;;1.58;;
66380;SDS011;53177;52.648;1.214;2023-04-25T00:58:12;10.30;;;1.70;;
66380;SDS011;53177;52.648;1.214;2023-04-25T01:00:37;6.20;;;1.70;;
66380;SDS011;53177;52.648;1.214;2023-04-25T01:03:05;8.52;;;1.95;;
66380;SDS011;53177;52.648;1.214;2023-04-25T01:05:31;11.33;;;1.70;;
66380;SDS011;53177;52.648;1.214;2023-04-25T01:07:56;6.82;;;1.65;;
66380;SDS011;53177;52.648;1.214;2023-04-25T01:10:22;9.97;;;1.80;;
66380;SDS011;53177;52.648;1.214;2023-04-25T01:12:47;8.60;;;1.47;;
66380;SDS011;53177;52.648;1.214;2023-04-25T01:15:13;7.57;;;1.43;;
66380;SDS011;53177;52.648;1.214;2023-04-25T01:17:38;10.73;;;1.75;;
66380;SDS011;53177;52.648;1.214;2023-04-25T01:20:06;7.93;;;1.30;;
66380;SDS011;53177;52.648;1.214;2023-04-25T01:22:34;7.53;;;1.42;;
66380;SDS011;53177;52.648;1.214;2023-04-25T01:25:00;7.30;;;1.52;;
66380;SDS011;53177;52.648;1.214;2023-04-25T01:27:26;8.23;;;1.57;;
66380;SDS011;53177;52.648;1.214;2023-04-25T01:29:52;11.20;;;2.13;;
66380;SDS011;53177;52.648;1.214;2023-04-25T01:32:19;11.27;;;1.58;;
66380;SDS011;53177;52.648;1.214;2023-04-25T01:34:45;8.48;;;1.40;;
66380;SDS011;53177;52.648;1.214;2023-04-25T01:37:11;6.67;;;1.83;;
66380;SDS011;53177;52.648;1.214;2023-04-25T01:39:36;8.17;;;1.53;;
66380;SDS011;53177;52.648;1.214;2023-04-25T01:42:02;7.82;;;1.50;;
66380;SDS011;53177;52.648;1.214;2023-04-25T01:44:27;12.05;;;1.70;;
66380;SDS011;53177;52.648;1.214;2023-04-25T01:46:53;11.17;;;1.90;;
66380;SDS011;53177;52.648;1.214;2023-04-25T01:49:19;8.20;;;1.45;;
66380;SDS011;53177;52.648;1.214;2023-04-25T01:51:44;9.80;;;2.70;;
66380;SDS011;53177;52.648;1.214;2023-04-25T01:54:10;10.93;;;1.60;;
66380;SDS011;53177;52.648;1.214;2023-04-25T01:56:37;12.60;;;1.60;;
66380;SDS011;53177;52.648;1.214;2023-04-25T01:59:03;7.80;;;1.38;;
66380;SDS011;53177;52.648;1.214;2023-04-25T02:01:29;6.75;;;1.40;;
66380;SDS011;53177;52.648;1.214;2023-04-25T02:03:55;11.10;;;1.17;;
66380;SDS011;53177;52.648;1.214;2023-04-25T02:06:20;7.07;;;1.43;;
66380;SDS011;53177;52.648;1.214;2023-04-25T02:08:45;9.40;;;1.47;;
66380;SDS011;53177;52.648;1.214;2023-04-25T02:11:11;9.03;;;1.20;;
66380;SDS011;53177;52.648;1.214;2023-04-25T02:13:36;6.78;;;1.38;;
66380;SDS011;53177;52.648;1.214;2023-04-25T02:16:02;9.93;;;1.40;;
66380;SDS011;53177;52.648;1.214;2023-04-25T02:18:27;11.80;;;1.43;;
66380;SDS011;53177;52.648;1.214;2023-04-25T02:20:53;8.05;;;1.50;;
66380;SDS011;53177;52.648;1.214;2023-04-25T02:23:18;9.20;;;1.40;;
66380;SDS011;53177;52.648;1.214;2023-04-25T02:25:44;11.00;;;1.87;;
66380;SDS011;53177;52.648;1.214;2023-04-25T02:28:10;6.43;;;1.20;;
66380;SDS011;53177;52.648;1.214;2023-04-25T02:30:35;8.90;;;1.33;;
66380;SDS011;53177;52.648;1.214;2023-04-25T02:33:01;4.90;;;1.20;;
66380;SDS011;53177;52.648;1.214;2023-04-25T02:35:26;5.10;;;1.10;;
66380;SDS011;53177;52.648;1.214;2023-04-25T02:37:52;5.23;;;1.33;;
66380;SDS011;53177;52.648;1.214;2023-04-25T02:40:17;7.03;;;1.20;;
66380;SDS011;53177;52.648;1.214;2023-04-25T02:42:42;5.17;;;1.20;;
66380;SDS011;53177;52.648;1.214;2023-04-25T02:45:10;8.50;;;1.20;;
66380;SDS011;53177;52.648;1.214;2023-04-25T02:47:36;7.00;;;1.27;;
66380;SDS011;53177;52.648;1.214;2023-04-25T02:50:01;6.37;;;1.33;;
66380;SDS011;53177;52.648;1.214;2023-04-25T02:52:27;7.40;;;1.13;;
66380;SDS011;53177;52.648;1.214;2023-04-25T02:54:52;6.17;;;1.20;;
66380;SDS011;53177;52.648;1.214;2023-04-25T02:57:17;5.87;;;1.27;;
66380;SDS011;53177;52.648;1.214;2023-04-25T02:59:43;6.43;;;1.37;;
66380;SDS011;53177;52.648;1.214;2023-04-25T03:02:08;10.87;;;1.80;;
66380;SDS011;53177;52.648;1.214;2023-04-25T03:04:34;10.35;;;1.83;;
66380;SDS011;53177;52.648;1.214;2023-04-25T03:07:02;9.20;;;1.37;;
66380;SDS011;53177;52.648;1.214;2023-04-25T03:09:29;7.07;;;1.30;;
66380;SDS011;53177;52.648;1.214;2023-04-25T03:11:54;7.77;;;1.50;;
66380;SDS011;53177;52.648;1.214;2023-04-25T03:14:20;9.37;;;1.37;;
66380;SDS011;53177;52.648;1.214;2023-04-25T03:16:45;5.13;;;1.10;;
66380;SDS011;53177;52.648;1.214;2023-04-25T03:19:11;6.68;;;1.48;;
66380;SDS011;53177;52.648;1.214;2023-04-25T03:21:36;9.13;;;1.43;;
66380;SDS011;53177;52.648;1.214;2023-04-25T03:24:02;8.37;;;1.57;;
66380;SDS011;53177;52.648;1.214;2023-04-25T03:26:29;12.20;;;1.60;;
66380;SDS011;53177;52.648;1.214;2023-04-25T03:28:54;10.23;;;1.75;;
66380;SDS011;53177;52.648;1.214;2023-04-25T03:31:20;11.85;;;1.85;;
66380;SDS011;53177;52.648;1.214;2023-04-25T03:33:45;8.67;;;1.63;;
66380;SDS011;53177;52.648;1.214;2023-04-25T03:36:10;8.80;;;1.57;;
66380;SDS011;53177;52.648;1.214;2023-04-25T03:38:36;5.53;;;1.23;;
66380;SDS011;53177;52.648;1.214;2023-04-25T03:41:01;8.07;;;1.43;;
66380;SDS011;53177;52.648;1.214;2023-04-25T03:43:27;8.63;;;1.50;;
66380;SDS011;53177;52.648;1.214;2023-04-25T03:45:52;6.30;;;1.20;;
66380;SDS011;53177;52.648;1.214;2023-04-25T03:48:18;7.60;;;1.30;;
66380;SDS011;53177;52.648;1.214;2023-04-25T03:50:46;6.05;;;1.42;;
66380;SDS011;53177;52.648;1.214;2023-04-25T03:53:12;7.22;;;1.33;;
66380;SDS011;53177;52.648;1.214;2023-04-25T03:55:37;8.73;;;1.20;;
66380;SDS011;53177;52.648;1.214;2023-04-25T03:58:02;8.60;;;1.47;;
66380;SDS011;53177;52.648;1.214;2023-04-25T04:00:28;5.90;;;1.30;;
66380;SDS011;53177;52.648;1.214;2023-04-25T04:02:53;12.20;;;1.40;;
66380;SDS011;53177;52.648;1.214;2023-04-25T04:05:18;9.23;;;1.50;;
66380;SDS011;53177;52.648;1.214;2023-04-25T04:10:28;7.47;;;1.45;;
66380;SDS011;53177;52.648;1.214;2023-04-25T04:12:57;7.28;;;1.30;;
66380;SDS011;53177;52.648;1.214;2023-04-25T04:15:25;7.40;;;1.85;;
66380;SDS011;53177;52.648;1.214;2023-04-25T04:17:52;9.93;;;1.85;;
66380;SDS011;53177;52.648;1.214;2023-04-25T04:20:19;6.77;;;1.43;;
66380;SDS011;53177;52.648;1.214;2023-04-25T04:22:46;10.85;;;1.38;;
66380;SDS011;53177;52.648;1.214;2023-04-25T04:25:30;10.32;;;1.30;;
66380;SDS011;53177;52.648;1.214;2023-04-25T04:27:59;7.83;;;1.40;;
66380;SDS011;53177;52.648;1.214;2023-04-25T04:30:26;7.75;;;1.50;;
66380;SDS011;53177;52.648;1.214;2023-04-25T04:32:54;6.57;;;1.70;;
66380;SDS011;53177;52.648;1.214;2023-04-25T04:35:21;8.55;;;1.38;;
66380;SDS011;53177;52.648;1.214;2023-04-25T04:37:46;7.72;;;2.00;;
66380;SDS011;53177;52.648;1.214;2023-04-25T04:40:13;8.75;;;1.63;;
66380;SDS011;53177;52.648;1.214;2023-04-25T04:42:41;7.75;;;1.70;;
66380;SDS011;53177;52.648;1.214;2023-04-25T04:45:07;6.53;;;1.50;;
66380;SDS011;53177;52.648;1.214;2023-04-25T04:47:33;8.25;;;1.83;;
66380;SDS011;53177;52.648;1.214;2023-04-25T04:49:59;5.77;;;1.30;;
66380;SDS011;53177;52.648;1.214;2023-04-25T04:52:24;10.03;;;2.00;;
66380;SDS011;53177;52.648;1.214;2023-04-25T04:54:50;9.30;;;1.67;;
66380;SDS011;53177;52.648;1.214;2023-04-25T04:57:15;8.57;;;1.55;;
66380;SDS011;53177;52.648;1.214;2023-04-25T04:59:41;8.83;;;1.60;;
66380;SDS011;53177;52.648;1.214;2023-04-25T05:02:07;12.75;;;1.67;;
66380;SDS011;53177;52.648;1.214;2023-04-25T05:04:32;9.57;;;1.60;;
66380;SDS011;53177;52.648;1.214;2023-04-25T05:06:58;11.27;;;2.00;;
66380;SDS011;53177;52.648;1.214;2023-04-25T05:09:23;10.17;;;1.87;;
66380;SDS011;53177;52.648;1.214;2023-04-25T05:11:50;9.13;;;1.95;;
66380;SDS011;53177;52.648;1.214;2023-04-25T05:14:16;9.27;;;1.90;;
66380;SDS011;53177;52.648;1.214;2023-04-25T05:16:42;11.10;;;1.83;;
66380;SDS011;53177;52.648;1.214;2023-04-25T05:19:08;8.68;;;2.25;;
66380;SDS011;53177;52.648;1.214;2023-04-25T05:21:34;6.70;;;1.60;;
66380;SDS011;53177;52.648;1.214;2023-04-25T05:23:59;14.60;;;2.43;;
66380;SDS011;53177;52.648;1.214;2023-04-25T05:26:25;9.15;;;1.85;;
66380;SDS011;53177;52.648;1.214;2023-04-25T05:28:50;12.73;;;2.10;;
66380;SDS011;53177;52.648;1.214;2023-04-25T05:31:16;12.73;;;2.37;;
66380;SDS011;53177;52.648;1.214;2023-04-25T05:33:42;12.52;;;1.92;;
66380;SDS011;53177;52.648;1.214;2023-04-25T05:36:07;9.90;;;1.55;;
66380;SDS011;53177;52.648;1.214;2023-04-25T05:38:33;12.97;;;2.00;;
66380;SDS011;53177;52.648;1.214;2023-04-25T05:40:58;9.77;;;1.87;;
66380;SDS011;53177;52.648;1.214;2023-04-25T05:43:24;10.20;;;1.65;;
66380;SDS011;53177;52.648;1.214;2023-04-25T05:45:49;9.97;;;1.63;;
66380;SDS011;53177;52.648;1.214;2023-04-25T05:48:15;8.07;;;1.90;;
66380;SDS011;53177;52.648;1.214;2023-04-25T05:50:40;9.17;;;1.50;;
66380;SDS011;53177;52.648;1.214;2023-04-25T05:53:06;9.55;;;1.98;;
66380;SDS011;53177;52.648;1.214;2023-04-25T05:55:31;11.07;;;1.60;;
66380;SDS011;53177;52.648;1.214;2023-04-25T05:57:56;10.73;;;1.87;;
66380;SDS011;53177;52.648;1.214;2023-04-25T06:00:22;14.00;;;2.23;;
66380;SDS011;53177;52.648;1.214;2023-04-25T06:02:47;8.13;;;1.40;;
66380;SDS011;53177;52.648;1.214;2023-04-25T06:05:13;11.70;;;1.70;;
66380;SDS011;53177;52.648;1.214;2023-04-25T06:07:38;6.43;;;1.47;;
66380;SDS011;53177;52.648;1.214;2023-04-25T06:10:04;8.70;;;1.50;;
66380;SDS011;53177;52.648;1.214;2023-04-25T06:12:32;9.95;;;2.25;;
66380;SDS011;53177;52.648;1.214;2023-04-25T06:14:58;7.57;;;1.13;;
66380;SDS011;53177;52.648;1.214;2023-04-25T06:17:23;7.37;;;1.40;;
66380;SDS011;53177;52.648;1.214;2023-04-25T06:19:49;6.27;;;1.30;;
66380;SDS011;53177;52.648;1.214;2023-04-25T06:22:14;9.47;;;1.63;;
66380;SDS011;53177;52.648;1.214;2023-04-25T06:24:39;9.93;;;1.58;;
66380;SDS011;53177;52.648;1.214;2023-04-25T06:27:05;8.27;;;1.07;;
66380;SDS011;53177;52.648;1.214;2023-04-25T06:29:30;8.23;;;1.40;;
66380;SDS011;53177;52.648;1.214;2023-04-25T06:31:56;10.10;;;1.30;;
66380;SDS011;53177;52.648;1.214;2023-04-25T06:34:22;10.75;;;1.20;;
66380;SDS011;53177;52.648;1.214;2023-04-25T06:36:47;6.20;;;1.27;;
66380;SDS011;53177;52.648;1.214;2023-04-25T06:39:12;7.27;;;1.40;;
66380;SDS011;53177;52.648;1.214;2023-04-25T06:41:38;8.87;;;1.40;;
66380;SDS011;53177;52.648;1.214;2023-04-25T06:44:03;6.68;;;1.40;;
66380;SDS011;53177;52.648;1.214;2023-04-25T06:46:29;10.32;;;2.13;;
66380;SDS011;53177;52.648;1.214;2023-04-25T06:48:54;8.43;;;1.50;;
66380;SDS011;53177;52.648;1.214;2023-04-25T06:51:20;13.60;;;1.83;;
66380;SDS011;53177;52.648;1.214;2023-04-25T06:53:45;9.55;;;1.50;;
66380;SDS011;53177;52.648;1.214;2023-04-25T06:56:11;8.83;;;1.67;;
66380;SDS011;53177;52.648;1.214;2023-04-25T06:58:36;7.60;;;2.03;;
66380;SDS011;53177;52.648;1.214;2023-04-25T07:01:01;10.50;;;1.77;;
66380;SDS011;53177;52.648;1.214;2023-04-25T07:03:27;8.10;;;1.67;;
66380;SDS011;53177;52.648;1.214;2023-04-25T07:05:52;13.80;;;2.08;;
66380;SDS011;53177;52.648;1.214;2023-04-25T07:08:18;11.07;;;1.77;;
66380;SDS011;53177;52.648;1.214;2023-04-25T07:10:43;9.00;;;1.70;;
66380;SDS011;53177;52.648;1.214;2023-04-25T07:13:11;10.98;;;1.60;;
66380;SDS011;53177;52.648;1.214;2023-04-25T07:15:36;8.20;;;1.60;;
66380;SDS011;53177;52.648;1.214;2023-04-25T07:18:02;10.70;;;1.93;;
66380;SDS011;53177;52.648;1.214;2023-04-25T07:20:27;10.75;;;1.50;;
66380;SDS011;53177;52.648;1.214;2023-04-25T07:22:53;8.07;;;1.33;;
66380;SDS011;53177;52.648;1.214;2023-04-25T07:25:19;12.13;;;1.50;;
66380;SDS011;53177;52.648;1.214;2023-04-25T07:27:45;6.60;;;1.00;;
66380;SDS011;53177;52.648;1.214;2023-04-25T07:30:10;6.07;;;1.40;;
66380;SDS011;53177;52.648;1.214;2023-04-25T07:32:37;8.13;;;1.15;;
66380;SDS011;53177;52.648;1.214;2023-04-25T07:35:02;6.20;;;1.10;;
66380;SDS011;53177;52.648;1.214;2023-04-25T07:37:28;5.97;;;1.15;;
66380;SDS011;53177;52.648;1.214;2023-04-25T07:39:53;7.43;;;1.40;;
66380;SDS011;53177;52.648;1.214;2023-04-25T07:42:19;9.07;;;1.30;;
66380;SDS011;53177;52.648;1.214;2023-04-25T07:44:44;7.13;;;1.30;;
66380;SDS011;53177;52.648;1.214;2023-04-25T07:47:10;9.68;;;1.35;;
66380;SDS011;53177;52.648;1.214;2023-04-25T07:49:36;10.07;;;1.50;;
66380;SDS011;53177;52.648;1.214;2023-04-25T07:52:02;10.60;;;1.63;;
66380;SDS011;53177;52.648;1.214;2023-04-25T07:54:29;5.70;;;1.47;;
66380;SDS011;53177;52.648;1.214;2023-04-25T07:56:54;7.75;;;1.48;;
66380;SDS011;53177;52.648;1.214;2023-04-25T07:59:20;8.23;;;1.30;;
66380;SDS011;53177;52.648;1.214;2023-04-25T08:01:46;6.63;;;1.40;;
66380;SDS011;53177;52.648;1.214;2023-04-25T08:04:12;8.77;;;1.67;;
66380;SDS011;53177;52.648;1.214;2023-04-25T08:06:37;6.70;;;1.30;;
66380;SDS011;53177;52.648;1.214;2023-04-25T08:09:03;5.97;;;1.30;;
66380;SDS011;53177;52.648;1.214;2023-04-25T08:11:29;7.03;;;1.40;;
66380;SDS011;53177;52.648;1.214;2023-04-25T08:13:58;9.83;;;1.37;;
66380;SDS011;53177;52.648;1.214;2023-04-25T08:16:23;5.88;;;1.17;;
66380;SDS011;53177;52.648;1.214;2023-04-25T08:18:49;4.90;;;1.00;;
66380;SDS011;53177;52.648;1.214;2023-04-25T08:21:15;10.82;;;2.78;;
66380;SDS011;53177;52.648;1.214;2023-04-25T08:23:40;8.03;;;3.23;;
66380;SDS011;53177;52.648;1.214;2023-04-25T08:26:06;10.15;;;3.65;;
66380;SDS011;53177;52.648;1.214;2023-04-25T08:28:32;11.63;;;4.40;;
66380;SDS011;53177;52.648;1.214;2023-04-25T08:30:57;8.80;;;2.70;;
66380;SDS011;53177;52.648;1.214;2023-04-25T08:33:23;9.43;;;3.10;;
66380;SDS011;53177;52.648;1.214;2023-04-25T08:35:48;12.07;;;3.10;;
66380;SDS011;53177;52.648;1.214;2023-04-25T08:38:13;7.80;;;1.80;;
66380;SDS011;53177;52.648;1.214;2023-04-25T08:40:39;7.50;;;1.70;;
66380;SDS011;53177;52.648;1.214;2023-04-25T08:43:06;6.88;;;1.35;;
66380;SDS011;53177;52.648;1.214;2023-04-25T08:45:38;7.78;;;1.60;;
66380;SDS011;53177;52.648;1.214;2023-04-25T08:48:07;9.60;;;1.35;;
66380;SDS011;53177;52.648;1.214;2023-04-25T08:50:49;5.80;;;1.10;;
66380;SDS011;53177;52.648;1.214;2023-04-25T08:53:16;9.32;;;1.23;;
66380;SDS011;53177;52.648;1.214;2023-04-25T08:55:45;8.85;;;1.33;;
66380;SDS011;53177;52.648;1.214;2023-04-25T08:58:11;7.68;;;1.10;;
66380;SDS011;53177;52.648;1.214;2023-04-25T09:00:38;4.30;;;1.02;;
66380;SDS011;53177;52.648;1.214;2023-04-25T09:03:04;7.30;;;1.93;;
66380;SDS011;53177;52.648;1.214;2023-04-25T09:05:33;10.23;;;1.80;;
66380;SDS011;53177;52.648;1.214;2023-04-25T09:08:01;8.73;;;2.10;;
66380;SDS011;53177;52.648;1.214;2023-04-25T09:10:27;9.03;;;1.60;;
66380;SDS011;53177;52.648;1.214;2023-04-25T09:15:27;7.55;;;1.60;;
66380;SDS011;53177;52.648;1.214;2023-04-25T09:17:58;7.07;;;1.40;;
66380;SDS011;53177;52.648;1.214;2023-04-25T09:20:24;5.35;;;1.30;;
66380;SDS011;53177;52.648;1.214;2023-04-25T09:23:00;5.17;;;1.20;;
66380;SDS011;53177;52.648;1.214;2023-04-25T09:25:34;5.28;;;1.20;;
66380;SDS011;53177;52.648;1.214;2023-04-25T09:28:03;6.28;;;1.65;;
66380;SDS011;53177;52.648;1.214;2023-04-25T09:30:30;5.93;;;1.50;;
66380;SDS011;53177;52.648;1.214;2023-04-25T09:33:07;8.65;;;2.22;;
66380;SDS011;53177;52.648;1.214;2023-04-25T09:35:37;6.57;;;1.92;;
66380;SDS011;53177;52.648;1.214;2023-04-25T09:38:11;6.72;;;1.50;;
66380;SDS011;53177;52.648;1.214;2023-04-25T09:40:44;10.18;;;1.50;;
66380;SDS011;53177;52.648;1.214;2023-04-25T09:43:20;5.67;;;1.37;;
66380;SDS011;53177;52.648;1.214;2023-04-25T09:45:47;9.88;;;1.38;;
66380;SDS011;53177;52.648;1.214;2023-04-25T09:48:19;9.63;;;1.90;;
66380;SDS011;53177;52.648;1.214;2023-04-25T09:51:04;9.07;;;1.50;;
66380;SDS011;53177;52.648;1.214;2023-04-25T09:53:33;6.43;;;1.20;;
66380;SDS011;53177;52.648;1.214;2023-04-25T09:56:09;7.20;;;1.20;;
66380;SDS011;53177;52.648;1.214;2023-04-25T09:58:36;6.65;;;1.20;;
66380;SDS011;53177;52.648;1.214;2023-04-25T10:01:03;5.47;;;1.50;;
66380;SDS011;53177;52.648;1.214;2023-04-25T10:03:31;4.28;;;1.15;;
66380;SDS011;53177;52.648;1.214;2023-04-25T10:06:02;4.90;;;1.20;;
66380;SDS011;53177;52.648;1.214;2023-04-25T10:08:36;4.78;;;1.33;;
66380;SDS011;53177;52.648;1.214;2023-04-25T10:11:06;7.18;;;1.40;;
66380;SDS011;53177;52.648;1.214;2023-04-25T10:13:33;7.35;;;1.60;;
66380;SDS011;53177;52.648;1.214;2023-04-25T10:16:01;7.75;;;1.40;;
66380;SDS011;53177;52.648;1.214;2023-04-25T10:18:28;6.77;;;1.20;;
66380;SDS011;53177;52.648;1.214;2023-04-25T10:20:54;7.18;;;1.48;;
66380;SDS011;53177;52.648;1.214;2023-04-25T10:23:23;7.72;;;2.03;;
66380;SDS011;53177;52.648;1.214;2023-04-25T10:25:49;6.80;;;1.52;;
66380;SDS011;53177;52.648;1.214;2023-04-25T10:28:16;6.25;;;1.50;;
66380;SDS011;53177;52.648;1.214;2023-04-25T10:30:57;7.63;;;1.80;;
66380;SDS011;53177;52.648;1.214;2023-04-25T10:33:39;6.50;;;1.40;;
66380;SDS011;53177;52.648;1.214;2023-04-25T10:36:40;7.82;;;1.83;;
66380;SDS011;53177;52.648;1.214;2023-04-25T10:39:02;5.90;;;1.50;;
66380;SDS011;53177;52.648;1.214;2023-04-25T10:41:31;7.20;;;1.70;;
66380;SDS011;53177;52.648;1.214;2023-04-25T10:44:11;7.15;;;1.75;;
66380;SDS011;53177;52.648;1.214;2023-04-25T10:46:36;7.57;;;1.60;;
66380;SDS011;53177;52.648;1.214;2023-04-25T10:49:02;9.75;;;2.20;;
66380;SDS011;53177;52.648;1.214;2023-04-25T10:51:28;10.47;;;2.00;;
66380;SDS011;53177;52.648;1.214;2023-04-25T10:53:59;8.57;;;1.70;;
66380;SDS011;53177;52.648;1.214;2023-04-25T11:01:35;5.57;;;1.53;;
66380;SDS011;53177;52.648;1.214;2023-04-25T11:04:04;7.40;;;1.50;;
66380;SDS011;53177;52.648;1.214;2023-04-25T11:06:40;8.45;;;1.70;;
66380;SDS011;53177;52.648;1.214;2023-04-25T11:09:16;7.53;;;1.60;;
66380;SDS011;53177;52.648;1.214;2023-04-25T11:11:42;9.40;;;2.40;;
66380;SDS011;53177;52.648;1.214;2023-04-25T11:14:07;5.40;;;1.93;;
66380;SDS011;53177;52.648;1.214;2023-04-25T11:16:33;6.80;;;2.30;;
66380;SDS011;53177;52.648;1.214;2023-04-25T11:18:58;6.97;;;1.77;;
66380;SDS011;53177;52.648;1.214;2023-04-25T11:21:27;9.70;;;2.35;;
66380;SDS011;53177;52.648;1.214;2023-04-25T11:23:53;7.57;;;2.10;;
66380;SDS011;53177;52.648;1.214;2023-04-25T11:26:21;8.35;;;1.95;;
66380;SDS011;53177;52.648;1.214;2023-04-25T11:28:47;9.18;;;1.83;;
66380;SDS011;53177;52.648;1.214;2023-04-25T11:31:14;7.43;;;1.85;;
66380;SDS011;53177;52.648;1.214;2023-04-25T11:33:40;7.05;;;1.80;;
66380;SDS011;53177;52.648;1.214;2023-04-25T11:36:05;6.75;;;1.70;;
66380;SDS011;53177;52.648;1.214;2023-04-25T11:38:31;6.83;;;2.03;;
66380;SDS011;53177;52.648;1.214;2023-04-25T11:40:57;5.75;;;1.90;;
66380;SDS011;53177;52.648;1.214;2023-04-25T11:43:22;10.20;;;2.07;;
66380;SDS011;53177;52.648;1.214;2023-04-25T11:45:50;10.00;;;2.37;;
66380;SDS011;53177;52.648;1.214;2023-04-25T11:48:17;6.20;;;2.03;;
66380;SDS011;53177;52.648;1.214;2023-04-25T11:50:43;8.82;;;2.00;;
66380;SDS011;53177;52.648;1.214;2023-04-25T11:53:08;6.17;;;1.80;;
66380;SDS011;53177;52.648;1.214;2023-04-25T11:55:35;7.60;;;1.85;;
66380;SDS011;53177;52.648;1.214;2023-04-25T11:58:01;5.75;;;1.80;;
66380;SDS011;53177;52.648;1.214;2023-04-25T12:00:27;6.57;;;1.90;;
66380;SDS011;53177;52.648;1.214;2023-04-25T12:02:53;7.70;;;2.35;;
66380;SDS011;53177;52.648;1.214;2023-04-25T12:05:19;6.47;;;2.40;;
66380;SDS011;53177;52.648;1.214;2023-04-25T12:07:48;8.80;;;2.10;;
66380;SDS011;53177;52.648;1.214;2023-04-25T12:10:14;6.47;;;2.33;;
66380;SDS011;53177;52.648;1.214;2023-04-25T12:12:41;8.60;;;2.70;;
66380;SDS011;53177;52.648;1.214;2023-04-25T12:15:14;8.00;;;2.42;;
66380;SDS011;53177;52.648;1.214;2023-04-25T12:17:44;11.75;;;2.97;;
66380;SDS011;53177;52.648;1.214;2023-04-25T12:20:14;8.70;;;2.42;;
66380;SDS011;53177;52.648;1.214;2023-04-25T12:22:42;7.22;;;2.67;;
66380;SDS011;53177;52.648;1.214;2023-04-25T12:25:12;7.57;;;2.80;;
66380;SDS011;53177;52.648;1.214;2023-04-25T12:28:08;9.68;;;2.97;;
66380;SDS011;53177;52.648;1.214;2023-04-25T12:33:29;10.77;;;2.58;;
66380;SDS011;53177;52.648;1.214;2023-04-25T12:35:56;10.73;;;2.75;;
66380;SDS011;53177;52.648;1.214;2023-04-25T12:38:23;10.53;;;2.70;;
66380;SDS011;53177;52.648;1.214;2023-04-25T12:40:52;11.75;;;2.70;;
66380;SDS011;53177;52.648;1.214;2023-04-25T12:43:19;9.77;;;2.55;;
66380;SDS011;53177;52.648;1.214;2023-04-25T12:45:47;6.78;;;2.15;;
66380;SDS011;53177;52.648;1.214;2023-04-25T12:48:16;10.40;;;2.20;;
66380;SDS011;53177;52.648;1.214;2023-04-25T12:50:42;7.18;;;2.20;;
66380;SDS011;53177;52.648;1.214;2023-04-25T12:53:08;6.45;;;2.53;;
66380;SDS011;53177;52.648;1.214;2023-04-25T12:55:33;10.80;;;2.63;;
66380;SDS011;53177;52.648;1.214;2023-04-25T12:57:59;8.83;;;2.50;;
66380;SDS011;53177;52.648;1.214;2023-04-25T13:00:24;8.07;;;2.30;;
66380;SDS011;53177;52.648;1.214;2023-04-25T13:02:51;7.90;;;2.40;;
66380;SDS011;53177;52.648;1.214;2023-04-25T13:05:16;8.00;;;2.33;;
66380;SDS011;53177;52.648;1.214;2023-04-25T13:07:42;7.43;;;2.30;;
66380;SDS011;53177;52.648;1.214;2023-04-25T13:10:07;7.77;;;2.40;;
66380;SDS011;53177;52.648;1.214;2023-04-25T13:12:33;11.03;;;2.57;;
66380;SDS011;53177;52.648;1.214;2023-04-25T13:14:58;9.60;;;2.25;;
66380;SDS011;53177;52.648;1.214;2023-04-25T13:17:24;8.82;;;2.35;;
66380;SDS011;53177;52.648;1.214;2023-04-25T13:19:49;8.57;;;2.53;;
66380;SDS011;53177;52.648;1.214;2023-04-25T13:22:14;8.13;;;2.57;;
66380;SDS011;53177;52.648;1.214;2023-04-25T13:24:41;7.88;;;2.35;;
66380;SDS011;53177;52.648;1.214;2023-04-25T13:27:07;9.60;;;2.47;;
66380;SDS011;53177;52.648;1.214;2023-04-25T13:29:32;10.80;;;2.33;;
66380;SDS011;53177;52.648;1.214;2023-04-25T13:32:00;7.85;;;2.17;;
66380;SDS011;53177;52.648;1.214;2023-04-25T13:34:26;6.80;;;2.00;;
66380;SDS011;53177;52.648;1.214;2023-04-25T13:36:52;7.50;;;2.03;;
66380;SDS011;53177;52.648;1.214;2023-04-25T13:39:17;6.20;;;2.30;;
66380;SDS011;53177;52.648;1.214;2023-04-25T13:41:42;9.73;;;2.53;;
66380;SDS011;53177;52.648;1.214;2023-04-25T13:44:08;9.85;;;2.03;;
66380;SDS011;53177;52.648;1.214;2023-04-25T13:46:35;10.50;;;2.30;;
66380;SDS011;53177;52.648;1.214;2023-04-25T13:49:02;9.32;;;2.13;;
66380;SDS011;53177;52.648;1.214;2023-04-25T13:51:28;9.13;;;2.40;;
66380;SDS011;53177;52.648;1.214;2023-04-25T13:53:53;7.93;;;2.20;;
66380;SDS011;53177;52.648;1.214;2023-04-25T13:56:18;7.53;;;2.00;;
66380;SDS011;53177;52.648;1.214;2023-04-25T13:58:44;8.45;;;2.28;;
66380;SDS011;53177;52.648;1.214;2023-04-25T14:01:10;8.00;;;2.20;;
66380;SDS011;53177;52.648;1.214;2023-04-25T14:03:35;8.85;;;2.30;;
66380;SDS011;53177;52.648;1.214;2023-04-25T14:06:01;5.15;;;2.20;;
66380;SDS011;53177;52.648;1.214;2023-04-25T14:08:26;9.37;;;2.10;;
66380;SDS011;53177;52.648;1.214;2023-04-25T14:10:52;6.30;;;2.43;;
66380;SDS011;53177;52.648;1.214;2023-04-25T14:13:17;11.80;;;2.10;;
66380;SDS011;53177;52.648;1.214;2023-04-25T14:15:43;6.68;;;2.42;;
66380;SDS011;53177;52.648;1.214;2023-04-25T14:18:08;8.10;;;2.27;;
66380;SDS011;53177;52.648;1.214;2023-04-25T14:20:33;8.70;;;2.00;;
66380;SDS011;53177;52.648;1.214;2023-04-25T14:22:59;8.67;;;2.10;;
66380;SDS011;53177;52.648;1.214;2023-04-25T14:25:24;11.60;;;2.53;;
66380;SDS011;53177;52.648;1.214;2023-04-25T14:27:50;9.25;;;2.13;;
66380;SDS011;53177;52.648;1.214;2023-04-25T14:30:16;8.13;;;2.20;;
66380;SDS011;53177;52.648;1.214;2023-04-25T14:32:45;8.20;;;2.80;;
66380;SDS011;53177;52.648;1.214;2023-04-25T14:35:11;5.53;;;2.20;;
66380;SDS011;53177;52.648;1.214;2023-04-25T14:37:37;8.33;;;2.80;;
66380;SDS011;53177;52.648;1.214;2023-04-25T14:40:02;8.00;;;2.50;;
66380;SDS011;53177;52.648;1.214;2023-04-25T14:42:29;7.25;;;2.40;;
66380;SDS011;53177;52.648;1.214;2023-04-25T14:44:55;7.15;;;2.60;;
66380;SDS011;53177;52.648;1.214;2023-04-25T14:47:20;9.40;;;2.73;;
66380;SDS011;53177;52.648;1.214;2023-04-25T14:49:46;7.87;;;2.60;;
66380;SDS011;53177;52.648;1.214;2023-04-25T14:52:16;9.90;;;2.72;;
66380;SDS011;53177;52.648;1.214;2023-04-25T14:54:41;9.03;;;2.60;;
66380;SDS011;53177;52.648;1.214;2023-04-25T14:57:07;7.25;;;2.30;;